Time;durP1;ratioP1;P1;durP2;ratioP2;P2;SDS_P1;SDS_P2;PMS_P1;PMS_P2;Temp;Humidity;BMP_temperature;BMP_pressure;BME280_temperature;BME280_humidity;BME280_pressure;Samples;Min_cycle;Max_cycle;Signal;HPM_P1;HPM_P2
2023/09/24 00:00:50;;;;;;;12.50;7.28;;;;;;;;;;5110758;28;20035;-59
2023/09/24 00:03:15;;;;;;;15.38;8.00;;;;;;;;;;5107237;28;20039;-58
2023/09/24 00:05:41;;;;;;;16.20;8.02;;;;;;;;;;5110338;28;20043;-59
2023/09/24 00:08:07;;;;;;;14.45;8.27;;;;;;;;;;5110286;28;20114;-58
2023/09/24 00:10:32;;;;;;;12.85;8.18;;;;;;;;;;5108467;28;20066;-59
2023/09/24 00:12:57;;;;;;;15.98;8.05;;;;;;;;;;5078406;28;20419;-58
2023/09/24 00:15:23;;;;;;;15.60;8.60;;;;;;;;;;5098351;28;20437;-58
2023/09/24 00:17:48;;;;;;;13.98;8.15;;;;;;;;;;5108698;28;20028;-58
2023/09/24 00:20:16;;;;;;;16.00;8.30;;;;;;;;;;5109469;28;20391;-59
2023/09/24 00:22:41;;;;;;;12.20;8.10;;;;;;;;;;5092490;28;20027;-58
2023/09/24 00:25:07;;;;;;;19.52;8.23;;;;;;;;;;5108979;28;20034;-59
2023/09/24 00:27:33;;;;;;;13.38;8.15;;;;;;;;;;5108758;28;20035;-58
2023/09/24 00:29:58;;;;;;;16.73;8.45;;;;;;;;;;5109822;28;20031;-56
2023/09/24 00:32:26;;;;;;;14.45;8.30;;;;;;;;;;5107096;28;20043;-59
2023/09/24 00:34:52;;;;;;;15.90;7.95;;;;;;;;;;5108352;28;20534;-59
2023/09/24 00:37:18;;;;;;;14.40;8.15;;;;;;;;;;5109642;28;20036;-59
2023/09/24 00:39:44;;;;;;;14.05;8.40;;;;;;;;;;5107489;28;20035;-59
2023/09/24 00:42:12;;;;;;;15.73;8.23;;;;;;;;;;5104979;28;20136;-58
2023/09/24 00:44:37;;;;;;;14.25;8.27;;;;;;;;;;5111108;28;20468;-59
2023/09/24 00:47:03;;;;;;;15.20;8.85;;;;;;;;;;5111835;28;20027;-57
2023/09/24 00:49:29;;;;;;;16.63;9.50;;;;;;;;;;5113220;28;20049;-58
2023/09/24 00:51:54;;;;;;;17.35;9.43;;;;;;;;;;5113052;28;20059;-58
2023/09/24 00:54:21;;;;;;;18.83;9.52;;;;;;;;;;5114353;28;20083;-59
2023/09/24 00:56:46;;;;;;;17.80;9.13;;;;;;;;;;5114100;28;20024;-59
2023/09/24 00:59:12;;;;;;;17.48;9.15;;;;;;;;;;5112725;28;20034;-58
2023/09/24 01:01:38;;;;;;;15.07;9.40;;;;;;;;;;5108404;28;20036;-58
2023/09/24 01:04:07;;;;;;;17.20;9.73;;;;;;;;;;5112657;28;20129;-59
2023/09/24 01:06:34;;;;;;;19.35;9.35;;;;;;;;;;5113000;28;20036;-58
2023/09/24 01:08:59;;;;;;;12.25;8.88;;;;;;;;;;5080727;28;20036;-59
2023/09/24 01:11:27;;;;;;;15.77;8.13;;;;;;;;;;5099933;28;20039;-59
2023/09/24 01:13:52;;;;;;;15.18;8.43;;;;;;;;;;5112921;28;20063;-58
2023/09/24 01:16:18;;;;;;;15.15;8.75;;;;;;;;;;5107137;28;20066;-59
2023/09/24 01:18:44;;;;;;;18.75;8.82;;;;;;;;;;5111547;28;20060;-59
2023/09/24 01:21:12;;;;;;;15.52;8.70;;;;;;;;;;5111236;28;20484;-58
2023/09/24 01:23:38;;;;;;;14.55;8.32;;;;;;;;;;5113320;28;20031;-60
2023/09/24 01:26:03;;;;;;;19.45;9.13;;;;;;;;;;5088364;28;20050;-59
2023/09/24 01:28:30;;;;;;;18.25;9.23;;;;;;;;;;5103536;28;20515;-58
2023/09/24 01:30:58;;;;;;;18.48;9.43;;;;;;;;;;5112928;28;20471;-59
2023/09/24 01:33:23;;;;;;;19.30;9.18;;;;;;;;;;5109898;28;20450;-59
2023/09/24 01:35:49;;;;;;;16.85;9.52;;;;;;;;;;5112589;28;20110;-57
2023/09/24 01:38:18;;;;;;;16.92;9.43;;;;;;;;;;5111584;28;20031;-57
2023/09/24 01:40:44;;;;;;;19.17;9.07;;;;;;;;;;5112078;28;20471;-56
2023/09/24 01:43:09;;;;;;;15.00;8.65;;;;;;;;;;5110973;28;20097;-58
2023/09/24 01:45:39;;;;;;;16.33;9.18;;;;;;;;;;5109950;28;20452;-58
2023/09/24 01:48:05;;;;;;;15.73;8.25;;;;;;;;;;5104244;28;20031;-58
2023/09/24 01:50:36;;;;;;;13.10;8.07;;;;;;;;;;5100593;28;20671;-58
2023/09/24 01:53:02;;;;;;;15.88;8.98;;;;;;;;;;5112616;28;20054;-59
2023/09/24 01:55:31;;;;;;;18.38;8.73;;;;;;;;;;5111016;28;20042;-59
2023/09/24 01:58:01;;;;;;;14.07;7.78;;;;;;;;;;5112922;28;20027;-58
2023/09/24 02:00:27;;;;;;;17.05;8.75;;;;;;;;;;5110305;28;20404;-59
2023/09/24 02:02:54;;;;;;;18.90;9.07;;;;;;;;;;5110846;28;20058;-59
2023/09/24 02:05:20;;;;;;;16.15;9.20;;;;;;;;;;5110049;28;20085;-57
2023/09/24 02:07:48;;;;;;;18.17;8.98;;;;;;;;;;5112090;28;20035;-58
2023/09/24 02:10:16;;;;;;;15.60;8.80;;;;;;;;;;5111105;28;20468;-57
2023/09/24 02:12:42;;;;;;;14.35;8.57;;;;;;;;;;5106753;28;20088;-58
2023/09/24 02:15:13;;;;;;;16.17;9.38;;;;;;;;;;5093603;28;20461;-58
2023/09/24 02:17:42;;;;;;;17.52;9.20;;;;;;;;;;5101260;28;20032;-57
2023/09/24 02:20:11;;;;;;;18.85;10.00;;;;;;;;;;5110689;28;20533;-58
2023/09/24 02:22:39;;;;;;;21.02;10.35;;;;;;;;;;5111102;28;20437;-57
2023/09/24 02:25:06;;;;;;;16.27;9.32;;;;;;;;;;5092817;28;20101;-58
2023/09/24 02:27:34;;;;;;;16.45;9.70;;;;;;;;;;5097298;28;20063;-57
2023/09/24 02:29:59;;;;;;;16.05;8.95;;;;;;;;;;5107551;28;20083;-57
2023/09/24 02:32:27;;;;;;;14.40;8.07;;;;;;;;;;5111281;28;20488;-57
2023/09/24 02:34:52;;;;;;;15.18;8.48;;;;;;;;;;5107678;28;20062;-58
2023/09/24 02:37:18;;;;;;;13.35;8.07;;;;;;;;;;5101266;28;20460;-58
2023/09/24 02:39:44;;;;;;;16.40;8.55;;;;;;;;;;5110319;28;20491;-58
2023/09/24 02:42:09;;;;;;;14.02;7.95;;;;;;;;;;5110893;28;20035;-59
2023/09/24 02:44:34;;;;;;;15.15;8.27;;;;;;;;;;5098592;28;20472;-59
2023/09/24 02:47:00;;;;;;;16.60;8.45;;;;;;;;;;5110802;28;20031;-57
2023/09/24 02:49:25;;;;;;;15.18;7.78;;;;;;;;;;5110076;28;20024;-58
2023/09/24 02:51:50;;;;;;;15.27;8.07;;;;;;;;;;5109408;28;20032;-58
2023/09/24 02:54:16;;;;;;;11.65;7.05;;;;;;;;;;5093383;28;20110;-58
2023/09/24 02:56:41;;;;;;;16.92;8.10;;;;;;;;;;5111404;28;20115;-58
2023/09/24 02:59:11;;;;;;;13.93;8.18;;;;;;;;;;5110687;28;20024;-59
2023/09/24 03:01:36;;;;;;;15.48;7.93;;;;;;;;;;5107815;28;20102;-59
2023/09/24 03:04:06;;;;;;;16.48;8.88;;;;;;;;;;5101135;28;20051;-57
2023/09/24 03:06:33;;;;;;;18.90;8.45;;;;;;;;;;5100165;28;20035;-59
2023/09/24 03:08:59;;;;;;;13.10;7.47;;;;;;;;;;5111411;28;20027;-57
2023/09/24 03:11:24;;;;;;;12.93;8.02;;;;;;;;;;5107972;28;20066;-58
2023/09/24 03:13:50;;;;;;;16.38;7.57;;;;;;;;;;5103804;28;20094;-58
2023/09/24 03:16:16;;;;;;;15.82;7.53;;;;;;;;;;5093300;28;20031;-57
2023/09/24 03:18:41;;;;;;;15.65;7.20;;;;;;;;;;5106151;28;20383;-57
2023/09/24 03:21:11;;;;;;;12.30;6.97;;;;;;;;;;5107527;28;20047;-58
2023/09/24 03:23:37;;;;;;;11.75;6.60;;;;;;;;;;5110509;28;20027;-59
2023/09/24 03:26:03;;;;;;;13.18;7.25;;;;;;;;;;5111185;28;20035;-59
2023/09/24 03:28:29;;;;;;;12.40;7.22;;;;;;;;;;5089451;28;20032;-59
2023/09/24 03:30:54;;;;;;;14.52;6.93;;;;;;;;;;5110553;28;20039;-58
2023/09/24 03:33:19;;;;;;;15.23;7.45;;;;;;;;;;5110984;28;20027;-58
2023/09/24 03:35:47;;;;;;;13.18;7.13;;;;;;;;;;5110166;28;20028;-59
2023/09/24 03:38:12;;;;;;;12.50;6.70;;;;;;;;;;5109275;28;20106;-59
2023/09/24 03:40:38;;;;;;;15.07;7.40;;;;;;;;;;5108353;28;20164;-58
2023/09/24 03:43:03;;;;;;;13.95;7.32;;;;;;;;;;5076999;28;20416;-58
2023/09/24 03:45:28;;;;;;;11.80;6.72;;;;;;;;;;5108585;28;20028;-59
2023/09/24 03:47:54;;;;;;;13.23;7.50;;;;;;;;;;5105296;28;20035;-59
2023/09/24 03:50:19;;;;;;;15.77;7.40;;;;;;;;;;5109600;28;20043;-56
2023/09/24 03:52:50;;;;;;;18.63;7.65;;;;;;;;;;5089334;28;20126;-59
2023/09/24 03:55:16;;;;;;;14.82;7.72;;;;;;;;;;5105684;28;20164;-58
2023/09/24 03:57:42;;;;;;;16.35;7.50;;;;;;;;;;5108104;28;20205;-58
2023/09/24 04:00:13;;;;;;;13.88;7.55;;;;;;;;;;5110397;28;20115;-58
2023/09/24 04:02:39;;;;;;;12.88;7.13;;;;;;;;;;5107370;28;20560;-58
2023/09/24 04:05:09;;;;;;;13.75;7.47;;;;;;;;;;5100952;28;20081;-60
2023/09/24 04:07:37;;;;;;;13.23;6.70;;;;;;;;;;5105010;28;20110;-60
2023/09/24 04:10:03;;;;;;;11.65;7.13;;;;;;;;;;5110713;28;20384;-60
2023/09/24 04:12:33;;;;;;;14.98;7.18;;;;;;;;;;5092620;28;20456;-60
2023/09/24 04:14:59;;;;;;;11.98;7.25;;;;;;;;;;5091101;28;20124;-60
2023/09/24 04:17:25;;;;;;;15.32;6.80;;;;;;;;;;5109332;28;20042;-59
2023/09/24 04:19:51;;;;;;;11.88;6.60;;;;;;;;;;5110946;28;20036;-60
2023/09/24 04:22:17;;;;;;;13.38;6.70;;;;;;;;;;5114021;28;20114;-58
2023/09/24 04:24:42;;;;;;;14.45;7.05;;;;;;;;;;5114066;28;20106;-59
2023/09/24 04:27:08;;;;;;;11.77;7.10;;;;;;;;;;5092987;28;20107;-59
2023/09/24 04:29:34;;;;;;;13.85;7.88;;;;;;;;;;5111265;28;20031;-60
2023/09/24 04:31:59;;;;;;;16.00;7.68;;;;;;;;;;5112366;28;20590;-60
2023/09/24 04:34:24;;;;;;;14.77;7.80;;;;;;;;;;5109587;28;20038;-59
2023/09/24 04:36:50;;;;;;;19.65;7.93;;;;;;;;;;5113315;28;20384;-60
2023/09/24 04:39:16;;;;;;;15.10;8.60;;;;;;;;;;5111794;28;20130;-60
2023/09/24 04:41:43;;;;;;;14.02;8.13;;;;;;;;;;5113594;28;20107;-59
2023/09/24 04:44:08;;;;;;;14.50;7.72;;;;;;;;;;5114454;28;20103;-60
2023/09/24 04:46:34;;;;;;;14.77;7.35;;;;;;;;;;5114374;28;20536;-60
2023/09/24 04:49:04;;;;;;;15.30;7.60;;;;;;;;;;5110591;28;20033;-59
2023/09/24 04:51:30;;;;;;;17.47;8.17;;;;;;;;;;5112023;28;20067;-58
2023/09/24 04:53:56;;;;;;;16.73;7.53;;;;;;;;;;5114647;28;20491;-59
2023/09/24 04:56:21;;;;;;;13.70;7.97;;;;;;;;;;5115055;28;20031;-58
2023/09/24 04:58:46;;;;;;;16.73;7.80;;;;;;;;;;5112561;28;20034;-59
2023/09/24 05:01:12;;;;;;;12.18;7.03;;;;;;;;;;5112484;28;20032;-59
2023/09/24 05:03:37;;;;;;;13.85;7.05;;;;;;;;;;5101989;28;20070;-58
2023/09/24 05:06:03;;;;;;;12.55;6.78;;;;;;;;;;5112925;28;20027;-60
2023/09/24 05:08:29;;;;;;;16.35;7.43;;;;;;;;;;5114324;28;20028;-59
2023/09/24 05:10:55;;;;;;;15.73;7.50;;;;;;;;;;5114128;28;20110;-60
2023/09/24 05:13:21;;;;;;;22.70;8.43;;;;;;;;;;5114754;28;20031;-59
2023/09/24 05:15:54;;;;;;;16.80;8.27;;;;;;;;;;5111418;28;20028;-59
2023/09/24 05:18:23;;;;;;;18.40;8.48;;;;;;;;;;5113260;28;20093;-58
2023/09/24 05:20:49;;;;;;;16.05;8.43;;;;;;;;;;5089690;28;20054;-60
2023/09/24 05:23:15;;;;;;;24.15;8.63;;;;;;;;;;5093914;28;20432;-60
2023/09/24 05:25:41;;;;;;;16.98;8.68;;;;;;;;;;5076903;28;20035;-59
2023/09/24 05:28:06;;;;;;;15.02;8.23;;;;;;;;;;5093859;28;20115;-59
2023/09/24 05:30:32;;;;;;;18.10;8.57;;;;;;;;;;5092270;28;20043;-59
2023/09/24 05:32:57;;;;;;;16.98;7.85;;;;;;;;;;5092229;28;20035;-59
2023/09/24 05:35:23;;;;;;;15.75;7.70;;;;;;;;;;5093925;28;20024;-60
2023/09/24 05:37:48;;;;;;;16.90;8.05;;;;;;;;;;5092527;28;20025;-59
2023/09/24 05:40:14;;;;;;;13.48;7.93;;;;;;;;;;5092939;28;20028;-59
2023/09/24 05:42:41;;;;;;;15.15;8.25;;;;;;;;;;5091965;28;20039;-59
2023/09/24 05:45:07;;;;;;;18.35;8.68;;;;;;;;;;5093707;28;20028;-59
2023/09/24 05:47:33;;;;;;;17.50;7.95;;;;;;;;;;5092684;28;20043;-59
2023/09/24 05:49:58;;;;;;;18.75;9.00;;;;;;;;;;5093618;28;20380;-61
2023/09/24 05:52:24;;;;;;;16.58;8.88;;;;;;;;;;5093353;28;20039;-61
2023/09/24 05:54:50;;;;;;;17.52;8.68;;;;;;;;;;5090410;28;20032;-60
2023/09/24 05:57:15;;;;;;;18.63;8.25;;;;;;;;;;5091504;28;20058;-60
2023/09/24 05:59:40;;;;;;;18.17;9.07;;;;;;;;;;5092076;28;20487;-60
2023/09/24 06:02:06;;;;;;;17.65;8.80;;;;;;;;;;5093191;28;20036;-61
2023/09/24 06:04:31;;;;;;;19.20;9.07;;;;;;;;;;5092377;28;20093;-60
2023/09/24 06:06:57;;;;;;;16.25;8.32;;;;;;;;;;5093020;28;20071;-61
2023/09/24 06:09:22;;;;;;;15.88;8.85;;;;;;;;;;5093174;28;20039;-60
2023/09/24 06:11:49;;;;;;;21.02;9.40;;;;;;;;;;5092287;28;20024;-59
2023/09/24 06:14:15;;;;;;;19.02;9.00;;;;;;;;;;5092920;28;20027;-61
2023/09/24 06:16:40;;;;;;;18.98;8.80;;;;;;;;;;5091456;28;20465;-61
2023/09/24 06:19:08;;;;;;;18.90;9.05;;;;;;;;;;5090168;28;20110;-61
2023/09/24 06:21:35;;;;;;;21.98;9.27;;;;;;;;;;5108437;28;20488;-61
2023/09/24 06:24:01;;;;;;;17.83;9.57;;;;;;;;;;5113208;28;20130;-61
2023/09/24 06:26:29;;;;;;;18.50;9.27;;;;;;;;;;5113073;28;20076;-61
2023/09/24 06:28:55;;;;;;;18.48;9.73;;;;;;;;;;5093444;28;20038;-61
2023/09/24 06:31:20;;;;;;;19.55;9.70;;;;;;;;;;5111061;28;20387;-61
2023/09/24 06:33:46;;;;;;;20.92;10.15;;;;;;;;;;5093751;28;20117;-61
2023/09/24 06:36:11;;;;;;;22.83;10.45;;;;;;;;;;5111591;28;20435;-61
2023/09/24 06:38:36;;;;;;;17.75;10.30;;;;;;;;;;5111888;28;20030;-61
2023/09/24 06:41:03;;;;;;;21.33;10.75;;;;;;;;;;5113899;28;20030;-61
2023/09/24 06:43:29;;;;;;;25.90;11.13;;;;;;;;;;5111846;28;20053;-60
2023/09/24 06:45:55;;;;;;;22.33;10.55;;;;;;;;;;5112399;28;20023;-60
2023/09/24 06:48:25;;;;;;;24.98;11.68;;;;;;;;;;5112924;28;20042;-60
2023/09/24 06:50:51;;;;;;;23.52;11.55;;;;;;;;;;5110850;28;20596;-60
2023/09/24 06:53:17;;;;;;;22.65;10.90;;;;;;;;;;5112593;28;20482;-60
2023/09/24 06:55:42;;;;;;;21.10;11.68;;;;;;;;;;5110048;28;20139;-60
2023/09/24 06:58:08;;;;;;;26.27;11.05;;;;;;;;;;5112675;28;20028;-60
2023/09/24 07:00:34;;;;;;;26.75;11.05;;;;;;;;;;5093319;28;20034;-61
2023/09/24 07:02:59;;;;;;;23.98;11.18;;;;;;;;;;5112595;28;20030;-60
2023/09/24 07:05:25;;;;;;;27.77;11.98;;;;;;;;;;5112132;28;20369;-60
2023/09/24 07:07:51;;;;;;;25.00;13.07;;;;;;;;;;5111474;28;20208;-60
2023/09/24 07:10:17;;;;;;;23.40;13.70;;;;;;;;;;5112529;28;20203;-61
2023/09/24 07:12:43;;;;;;;24.42;13.15;;;;;;;;;;5111033;28;20106;-60
2023/09/24 07:15:08;;;;;;;22.73;12.90;;;;;;;;;;5108158;28;20525;-60
2023/09/24 07:17:35;;;;;;;23.67;11.95;;;;;;;;;;5111418;28;20032;-60
2023/09/24 07:20:01;;;;;;;24.40;11.45;;;;;;;;;;5111847;28;20096;-60
2023/09/24 07:22:26;;;;;;;20.45;11.20;;;;;;;;;;5093432;28;20028;-60
2023/09/24 07:24:53;;;;;;;17.27;10.23;;;;;;;;;;5093055;28;20031;-60
2023/09/24 07:27:19;;;;;;;16.70;9.55;;;;;;;;;;5093219;28;20479;-60
2023/09/24 07:29:45;;;;;;;17.38;9.35;;;;;;;;;;5110784;28;20031;-60
2023/09/24 07:32:11;;;;;;;15.52;8.00;;;;;;;;;;5093518;28;20075;-60
2023/09/24 07:34:36;;;;;;;18.98;8.23;;;;;;;;;;5107448;28;20108;-60
2023/09/24 07:37:03;;;;;;;12.73;7.80;;;;;;;;;;5093450;28;20475;-60
2023/09/24 07:39:29;;;;;;;16.02;7.10;;;;;;;;;;5111938;28;20059;-60
2023/09/24 07:41:56;;;;;;;13.82;7.00;;;;;;;;;;5110766;28;20738;-60
2023/09/24 07:44:21;;;;;;;13.10;6.60;;;;;;;;;;5111731;28;20042;-60
2023/09/24 07:46:48;;;;;;;11.18;5.93;;;;;;;;;;5110145;28;20031;-60
2023/09/24 07:49:15;;;;;;;14.55;6.22;;;;;;;;;;5111766;28;20073;-60
2023/09/24 07:51:41;;;;;;;12.75;5.63;;;;;;;;;;5110654;28;20089;-62
2023/09/24 07:54:09;;;;;;;11.93;5.93;;;;;;;;;;5093488;28;20383;-60
2023/09/24 07:56:38;;;;;;;12.88;5.70;;;;;;;;;;5097307;28;20081;-60
2023/09/24 07:59:06;;;;;;;11.57;5.63;;;;;;;;;;5116074;28;20046;-60
2023/09/24 08:01:32;;;;;;;11.50;5.25;;;;;;;;;;5114417;28;20023;-60
2023/09/24 08:03:57;;;;;;;10.45;5.07;;;;;;;;;;5114854;28;20122;-60
2023/09/24 08:06:23;;;;;;;9.95;5.30;;;;;;;;;;5114264;28;20027;-60
2023/09/24 08:08:49;;;;;;;7.85;4.30;;;;;;;;;;5111961;28;20031;-60
2023/09/24 08:11:14;;;;;;;9.07;3.60;;;;;;;;;;5097819;28;20028;-60
2023/09/24 08:13:39;;;;;;;7.47;4.15;;;;;;;;;;5101332;28;20476;-60
2023/09/24 08:16:07;;;;;;;7.72;3.25;;;;;;;;;;5109202;28;20123;-60
2023/09/24 08:18:33;;;;;;;6.68;3.38;;;;;;;;;;5094873;28;20028;-61
2023/09/24 08:20:59;;;;;;;6.80;3.38;;;;;;;;;;5083130;28;20051;-60
2023/09/24 08:23:24;;;;;;;6.85;3.00;;;;;;;;;;5113902;28;20468;-61
2023/09/24 08:25:51;;;;;;;9.00;3.10;;;;;;;;;;5113749;28;20047;-60
2023/09/24 08:28:17;;;;;;;7.30;2.88;;;;;;;;;;5096881;28;20039;-60
2023/09/24 08:30:43;;;;;;;5.13;2.80;;;;;;;;;;5114798;28;20110;-60
2023/09/24 08:33:09;;;;;;;4.10;2.25;;;;;;;;;;5096015;28;20051;-60
2023/09/24 08:35:42;;;;;;;6.80;2.85;;;;;;;;;;5113692;28;20031;-62
2023/09/24 08:38:07;;;;;;;7.82;2.60;;;;;;;;;;5115306;28;20024;-60
2023/09/24 08:40:33;;;;;;;5.28;2.10;;;;;;;;;;5115331;28;20023;-60
2023/09/24 08:42:59;;;;;;;5.00;2.58;;;;;;;;;;5113581;28;20043;-60
2023/09/24 08:45:29;;;;;;;5.18;2.20;;;;;;;;;;5096975;28;20109;-60
2023/09/24 08:47:57;;;;;;;4.40;1.98;;;;;;;;;;5114211;28;20035;-60
2023/09/24 08:50:23;;;;;;;4.28;1.98;;;;;;;;;;5115304;28;20106;-62
2023/09/24 08:52:48;;;;;;;7.85;2.20;;;;;;;;;;5112280;28;20756;-60
2023/09/24 08:55:14;;;;;;;7.07;1.80;;;;;;;;;;5110923;28;20102;-61
2023/09/24 08:57:42;;;;;;;4.07;1.80;;;;;;;;;;5110536;28;20034;-60
2023/09/24 09:00:10;;;;;;;4.43;1.85;;;;;;;;;;5108072;28;20027;-59
2023/09/24 09:02:36;;;;;;;4.20;1.75;;;;;;;;;;5094385;28;20050;-60
2023/09/24 09:05:09;;;;;;;3.30;1.70;;;;;;;;;;5093204;28;20028;-61
2023/09/24 09:07:53;;;;;;;3.35;1.60;;;;;;;;;;5094438;28;20032;-59
2023/09/24 09:10:24;;;;;;;4.25;1.60;;;;;;;;;;5098721;28;20027;-59
2023/09/24 09:12:50;;;;;;;3.88;1.67;;;;;;;;;;5095253;28;20125;-59
2023/09/24 09:15:17;;;;;;;5.00;1.63;;;;;;;;;;5109220;28;20481;-59
2023/09/24 09:17:42;;;;;;;5.15;1.70;;;;;;;;;;5113730;28;20084;-60
2023/09/24 09:20:08;;;;;;;5.93;1.70;;;;;;;;;;5112579;28;20044;-60
2023/09/24 09:22:35;;;;;;;3.63;1.70;;;;;;;;;;5094091;28;20032;-58
2023/09/24 09:25:04;;;;;;;3.83;1.55;;;;;;;;;;5093234;28;20598;-60
2023/09/24 09:27:42;;;;;;;3.78;1.70;;;;;;;;;;5099122;28;20119;-59
2023/09/24 09:30:16;;;;;;;4.70;1.70;;;;;;;;;;5092921;28;20498;-56
2023/09/24 09:32:47;;;;;;;2.08;1.50;;;;;;;;;;5113683;28;20067;-59
2023/09/24 09:35:15;;;;;;;4.05;1.50;;;;;;;;;;5111054;28;20023;-59
2023/09/24 09:37:42;;;;;;;4.00;1.50;;;;;;;;;;5095378;28;20490;-58
2023/09/24 09:40:09;;;;;;;4.40;1.70;;;;;;;;;;5113307;28;20024;-60
2023/09/24 09:42:37;;;;;;;3.70;1.35;;;;;;;;;;5095804;28;20028;-59
2023/09/24 09:45:07;;;;;;;3.40;1.60;;;;;;;;;;5093110;28;20205;-59
2023/09/24 09:47:36;;;;;;;5.20;1.80;;;;;;;;;;5113444;28;20035;-58
2023/09/24 09:50:02;;;;;;;5.45;1.60;;;;;;;;;;5112616;28;20268;-58
2023/09/24 09:52:34;;;;;;;2.47;1.50;;;;;;;;;;5109081;28;20028;-58
2023/09/24 09:55:04;;;;;;;5.63;1.70;;;;;;;;;;5092464;28;20107;-58
2023/09/24 09:57:32;;;;;;;5.10;1.50;;;;;;;;;;5093562;28;20081;-59
2023/09/24 09:59:58;;;;;;;3.58;1.50;;;;;;;;;;5092557;28;20028;-58
2023/09/24 10:02:26;;;;;;;3.25;1.40;;;;;;;;;;5093871;28;20091;-62
2023/09/24 10:04:51;;;;;;;5.70;1.40;;;;;;;;;;5102567;28;20422;-59
2023/09/24 10:07:17;;;;;;;3.63;1.38;;;;;;;;;;5085088;28;20026;-58
2023/09/24 10:09:43;;;;;;;3.58;1.20;;;;;;;;;;5074847;28;20036;-60
2023/09/24 10:12:09;;;;;;;4.97;1.52;;;;;;;;;;5093048;28;20039;-57
2023/09/24 10:14:37;;;;;;;3.40;1.40;;;;;;;;;;5109855;28;20023;-59
2023/09/24 10:17:24;;;;;;;7.20;1.48;;;;;;;;;;5108149;28;20019;-59
2023/09/24 10:19:55;;;;;;;2.83;1.52;;;;;;;;;;5111711;28;20022;-58
2023/09/24 10:22:34;;;;;;;4.60;1.40;;;;;;;;;;5113402;28;20032;-58
2023/09/24 10:25:21;;;;;;;2.90;1.25;;;;;;;;;;5094654;28;20032;-60
2023/09/24 10:28:06;;;;;;;3.05;1.40;;;;;;;;;;5111951;28;20110;-56
2023/09/24 10:31:07;;;;;;;2.65;1.20;;;;;;;;;;5111359;28;20039;-58
2023/09/24 10:33:58;;;;;;;3.47;1.50;;;;;;;;;;5103546;28;20035;-58
2023/09/24 10:36:29;;;;;;;2.90;1.40;;;;;;;;;;5099506;28;20034;-58
2023/09/24 10:39:05;;;;;;;3.03;1.23;;;;;;;;;;5112197;28;20027;-57
2023/09/24 10:41:32;;;;;;;3.55;1.48;;;;;;;;;;5094693;28;20039;-58
2023/09/24 10:44:25;;;;;;;5.53;1.40;;;;;;;;;;5091942;28;20110;-55
2023/09/24 10:46:52;;;;;;;2.83;1.20;;;;;;;;;;5112121;28;20031;-56
2023/09/24 10:49:24;;;;;;;2.80;1.40;;;;;;;;;;5094598;28;20160;-55
2023/09/24 10:51:59;;;;;;;3.08;1.33;;;;;;;;;;5111664;28;20031;-57
2023/09/24 10:54:25;;;;;;;3.60;1.40;;;;;;;;;;5112888;28;20028;-57
2023/09/24 10:56:51;;;;;;;1.90;1.08;;;;;;;;;;5105312;28;20039;-58
2023/09/24 10:59:18;;;;;;;2.13;1.13;;;;;;;;;;5092320;28;20032;-57
2023/09/24 11:01:43;;;;;;;4.10;1.45;;;;;;;;;;5080187;28;20156;-58
2023/09/24 11:04:09;;;;;;;2.33;1.40;;;;;;;;;;5109407;28;20107;-58
2023/09/24 11:06:35;;;;;;;2.28;1.20;;;;;;;;;;5108429;28;20059;-56
2023/09/24 11:09:18;;;;;;;3.42;1.40;;;;;;;;;;5111569;28;20035;-56
2023/09/24 11:11:44;;;;;;;3.58;1.33;;;;;;;;;;5094230;28;20032;-56
2023/09/24 11:14:22;;;;;;;5.45;1.60;;;;;;;;;;5111706;28;20039;-57
2023/09/24 11:16:48;;;;;;;1.90;1.45;;;;;;;;;;5111858;28;20028;-56
2023/09/24 11:19:13;;;;;;;2.15;1.38;;;;;;;;;;5111970;28;20027;-57
2023/09/24 11:21:39;;;;;;;2.95;1.60;;;;;;;;;;5091171;28;20047;-57
2023/09/24 11:24:18;;;;;;;5.10;1.60;;;;;;;;;;5109616;28;20047;-58
2023/09/24 11:26:44;;;;;;;4.78;1.92;;;;;;;;;;5103228;28;20374;-57
2023/09/24 11:29:10;;;;;;;2.80;1.60;;;;;;;;;;5107875;28;20456;-57
2023/09/24 11:31:35;;;;;;;3.15;1.80;;;;;;;;;;5094035;28;20100;-57
2023/09/24 11:34:00;;;;;;;2.47;1.88;;;;;;;;;;5092553;28;20096;-57
2023/09/24 11:36:28;;;;;;;2.83;2.10;;;;;;;;;;5091857;28;20031;-57
2023/09/24 11:39:03;;;;;;;3.05;2.13;;;;;;;;;;5090793;28;20490;-59
2023/09/24 11:41:28;;;;;;;4.55;2.33;;;;;;;;;;5112141;28;20028;-59
2023/09/24 11:43:57;;;;;;;2.55;2.00;;;;;;;;;;5110111;28;20111;-59
2023/09/24 11:46:28;;;;;;;3.70;2.20;;;;;;;;;;5092550;28;20031;-60
2023/09/24 11:48:55;;;;;;;5.85;2.40;;;;;;;;;;5090570;28;20032;-60
2023/09/24 11:51:22;;;;;;;3.75;2.40;;;;;;;;;;5091328;28;20032;-59
2023/09/24 11:53:47;;;;;;;3.20;2.22;;;;;;;;;;5107283;28;20027;-59
2023/09/24 11:56:13;;;;;;;3.78;2.35;;;;;;;;;;5111651;28;20433;-59
2023/09/24 11:58:38;;;;;;;4.05;2.47;;;;;;;;;;5112064;28;20035;-60
2023/09/24 12:01:06;;;;;;;4.15;2.58;;;;;;;;;;5111571;28;20031;-61
2023/09/24 12:03:32;;;;;;;3.38;2.60;;;;;;;;;;5105994;28;20114;-60
2023/09/24 12:05:58;;;;;;;4.28;2.50;;;;;;;;;;5110947;28;20031;-59
2023/09/24 12:08:23;;;;;;;3.85;2.72;;;;;;;;;;5111901;28;20024;-59
2023/09/24 12:10:51;;;;;;;2.78;2.58;;;;;;;;;;5109901;28;20055;-59
2023/09/24 12:13:18;;;;;;;3.53;2.95;;;;;;;;;;5077370;28;20034;-60
2023/09/24 12:15:44;;;;;;;6.25;2.90;;;;;;;;;;5093530;28;20439;-59
2023/09/24 12:18:09;;;;;;;3.80;3.20;;;;;;;;;;5108070;28;20520;-59
2023/09/24 12:20:37;;;;;;;4.38;3.17;;;;;;;;;;5111723;28;20048;-60
2023/09/24 12:23:06;;;;;;;4.95;3.00;;;;;;;;;;5110563;28;20035;-60
2023/09/24 12:25:34;;;;;;;3.33;3.03;;;;;;;;;;5109513;28;20048;-60
2023/09/24 12:28:00;;;;;;;4.32;3.13;;;;;;;;;;5092684;28;20036;-60
2023/09/24 12:30:29;;;;;;;4.82;3.20;;;;;;;;;;5110275;28;20031;-61
2023/09/24 12:32:54;;;;;;;4.03;2.92;;;;;;;;;;5092241;28;20090;-58
2023/09/24 12:35:23;;;;;;;3.58;3.10;;;;;;;;;;5110393;28;20519;-58
2023/09/24 12:37:49;;;;;;;4.00;3.30;;;;;;;;;;5093049;28;20032;-59
2023/09/24 12:40:14;;;;;;;4.70;3.28;;;;;;;;;;5085805;28;20051;-61
2023/09/24 12:42:41;;;;;;;4.20;3.08;;;;;;;;;;5097997;28;20321;-59
2023/09/24 12:45:08;;;;;;;3.95;3.28;;;;;;;;;;5107517;28;20106;-59
2023/09/24 12:47:35;;;;;;;5.47;3.20;;;;;;;;;;5113382;28;20036;-59
2023/09/24 12:50:03;;;;;;;4.97;3.40;;;;;;;;;;5094018;28;20039;-60
2023/09/24 12:52:37;;;;;;;4.25;3.10;;;;;;;;;;5104794;28;20031;-58
2023/09/24 12:55:06;;;;;;;4.40;3.20;;;;;;;;;;5113809;28;20034;-61
2023/09/24 12:57:31;;;;;;;3.42;3.13;;;;;;;;;;5115432;28;20507;-59
2023/09/24 12:59:57;;;;;;;4.55;3.17;;;;;;;;;;5114118;28;20476;-59
2023/09/24 13:02:24;;;;;;;4.90;3.20;;;;;;;;;;5095953;28;20054;-59
2023/09/24 13:04:49;;;;;;;3.53;3.20;;;;;;;;;;5114855;28;20027;-59
2023/09/24 13:07:15;;;;;;;3.75;3.30;;;;;;;;;;5094796;28;20125;-59
2023/09/24 13:09:40;;;;;;;3.58;3.25;;;;;;;;;;5114487;28;20397;-59
2023/09/24 13:12:06;;;;;;;3.85;3.30;;;;;;;;;;5114040;28;20141;-59
2023/09/24 13:14:32;;;;;;;6.15;3.40;;;;;;;;;;5114231;28;20464;-58
2023/09/24 13:16:57;;;;;;;3.80;3.17;;;;;;;;;;5113259;28;20082;-61
2023/09/24 13:19:23;;;;;;;4.30;3.20;;;;;;;;;;5113268;28;20391;-58
2023/09/24 13:21:48;;;;;;;4.68;3.20;;;;;;;;;;5113261;28;20039;-59
2023/09/24 13:24:14;;;;;;;3.60;3.30;;;;;;;;;;5098762;28;20089;-59
2023/09/24 13:26:39;;;;;;;4.72;3.40;;;;;;;;;;5104285;28;20031;-60
2023/09/24 13:29:08;;;;;;;5.65;3.50;;;;;;;;;;5107685;28;20369;-60
2023/09/24 13:31:33;;;;;;;3.88;3.22;;;;;;;;;;5095811;28;20365;-59
2023/09/24 13:34:05;;;;;;;4.55;3.33;;;;;;;;;;5111594;28;20114;-59
2023/09/24 13:36:35;;;;;;;5.45;3.47;;;;;;;;;;5100890;28;20024;-61
2023/09/24 13:39:01;;;;;;;4.20;3.80;;;;;;;;;;5093130;28;20043;-61
2023/09/24 13:41:27;;;;;;;4.15;3.70;;;;;;;;;;5093486;28;20081;-59
2023/09/24 13:43:53;;;;;;;4.72;3.72;;;;;;;;;;5106832;28;20042;-60
2023/09/24 13:46:18;;;;;;;3.85;3.50;;;;;;;;;;5094181;28;20476;-60
2023/09/24 13:48:44;;;;;;;5.75;3.80;;;;;;;;;;5113567;28;20126;-60
2023/09/24 13:51:09;;;;;;;4.35;3.58;;;;;;;;;;5112875;28;20039;-58
2023/09/24 13:53:35;;;;;;;5.68;4.10;;;;;;;;;;5094341;28;20051;-59
2023/09/24 13:56:01;;;;;;;4.20;3.80;;;;;;;;;;5094662;28;20520;-58
2023/09/24 13:58:26;;;;;;;4.07;3.78;;;;;;;;;;5113427;28;20136;-61
2023/09/24 14:00:52;;;;;;;4.00;3.60;;;;;;;;;;5099499;28;20468;-60
2023/09/24 14:03:19;;;;;;;4.03;3.70;;;;;;;;;;5110820;28;20119;-61
2023/09/24 14:05:45;;;;;;;4.00;3.70;;;;;;;;;;5095497;28;20035;-60
2023/09/24 14:13:38;;;;;;;4.25;3.80;;;;;;;;;;5110886;28;20450;-60
2023/09/24 14:16:07;;;;;;;5.88;3.92;;;;;;;;;;5110768;28;20035;-61
2023/09/24 14:18:35;;;;;;;4.65;3.60;;;;;;;;;;5112566;28;20511;-59
2023/09/24 14:21:07;;;;;;;4.55;3.70;;;;;;;;;;5111345;28;20157;-60
2023/09/24 14:23:33;;;;;;;4.72;3.83;;;;;;;;;;5100793;28;20039;-59
2023/09/24 14:25:58;;;;;;;4.47;3.88;;;;;;;;;;5095693;28;20032;-58
2023/09/24 14:28:26;;;;;;;4.45;4.05;;;;;;;;;;5092662;28;20468;-63
2023/09/24 14:30:52;;;;;;;4.85;4.00;;;;;;;;;;5105400;28;20040;-61
2023/09/24 14:33:18;;;;;;;6.20;4.03;;;;;;;;;;5091482;28;20024;-59
2023/09/24 14:35:43;;;;;;;4.30;3.90;;;;;;;;;;5101852;28;20365;-61
2023/09/24 14:38:08;;;;;;;4.55;4.15;;;;;;;;;;5091969;28;20028;-61
2023/09/24 14:40:38;;;;;;;4.72;4.30;;;;;;;;;;5093975;28;20047;-60